createdAt,value
2017-05-05T00:00:00.797Z,10.19
2017-05-05T00:00:41.667Z,10.2
2017-05-05T00:01:22.558Z,10.16
2017-05-05T00:02:03.439Z,10.2
2017-05-05T00:02:44.319Z,10.22
2017-05-05T00:03:25.188Z,10.17
2017-05-05T00:04:06.112Z,10.16
2017-05-05T00:04:46.996Z,10.22
2017-05-05T00:05:27.872Z,10.17
2017-05-05T00:06:08.739Z,10.16
2017-05-05T00:06:49.633Z,10.17
2017-05-05T00:07:30.518Z,10.3
2017-05-05T00:08:11.405Z,10.2
2017-05-05T00:08:52.279Z,10.22
2017-05-05T00:09:33.158Z,10.2
2017-05-05T00:10:14.055Z,10.2
2017-05-05T00:10:54.935Z,10.2
2017-05-05T00:11:35.800Z,10.2
2017-05-05T00:12:16.658Z,10.13
2017-05-05T00:12:57.526Z,10.17
2017-05-05T00:13:38.415Z,10.12
2017-05-05T00:14:19.303Z,10.2
2017-05-05T00:15:00.193Z,10.23
2017-05-05T00:15:41.171Z,10.17
2017-05-05T00:16:22.058Z,10.3
2017-05-05T00:17:02.948Z,10.28
2017-05-05T00:17:43.829Z,10.26
2017-05-05T00:18:24.713Z,10.23
2017-05-05T00:19:05.599Z,10.28
2017-05-05T00:19:46.482Z,10.2
2017-05-05T00:20:27.364Z,10.26
2017-05-05T00:21:08.238Z,10.28
2017-05-05T00:21:49.091Z,10.19
2017-05-05T00:22:29.981Z,10.23
2017-05-05T00:24:03.406Z,10.34
2017-05-05T00:24:44.280Z,10.33
2017-05-05T00:25:25.165Z,10.25
2017-05-05T00:26:06.063Z,10.2
2017-05-05T00:26:46.939Z,10.31
2017-05-05T00:27:27.833Z,10.35
2017-05-05T00:28:08.693Z,10.4
2017-05-05T00:28:49.562Z,10.35
2017-05-05T00:29:30.454Z,10.35
2017-05-05T00:30:11.356Z,10.33
2017-05-05T00:30:52.209Z,10.34
2017-05-05T00:31:33.066Z,10.33
2017-05-05T00:32:13.938Z,10.26
2017-05-05T00:32:54.825Z,10.17
2017-05-05T00:33:35.699Z,10.19
2017-05-05T00:34:16.581Z,10.23
2017-05-05T00:34:57.471Z,10.22
2017-05-05T00:35:38.375Z,10.28
2017-05-05T00:36:19.261Z,10.19
2017-05-05T00:37:00.135Z,10.28
2017-05-05T00:37:41.052Z,10.28
2017-05-05T00:38:21.956Z,10.17
2017-05-05T00:39:02.815Z,10.13
2017-05-05T00:39:43.684Z,10.16
2017-05-05T00:40:24.517Z,10.15
2017-05-05T00:41:05.392Z,10.28
2017-05-05T00:41:46.243Z,10.23
2017-05-05T00:42:27.127Z,10.25
2017-05-05T00:43:08.016Z,10.26
2017-05-05T00:43:48.892Z,10.19
2017-05-05T00:44:29.749Z,10.19
2017-05-05T00:45:10.630Z,10.19
2017-05-05T00:45:51.504Z,10.16
2017-05-05T00:46:32.389Z,10.2
2017-05-05T00:47:13.284Z,10.16
2017-05-05T00:47:54.159Z,10.16
2017-05-05T00:48:35.027Z,10.15
2017-05-05T00:49:15.930Z,10.22
2017-05-05T00:49:56.794Z,10.23
2017-05-05T00:50:37.677Z,10.17
2017-05-05T00:51:18.553Z,10.2
2017-05-05T00:51:59.433Z,10.3
2017-05-05T00:52:40.306Z,10.35
2017-05-05T00:53:21.202Z,10.34
2017-05-05T00:54:02.058Z,10.37
2017-05-05T00:54:42.932Z,10.38
2017-05-05T00:55:23.790Z,10.35
2017-05-05T00:56:04.661Z,10.38
2017-05-05T00:56:45.544Z,10.33
2017-05-05T00:57:26.438Z,10.35
2017-05-05T00:58:07.336Z,10.33
2017-05-05T00:58:48.211Z,10.33
2017-05-05T00:59:29.106Z,10.37
2017-05-05T01:00:09.975Z,10.3
2017-05-05T01:00:50.855Z,10.35
2017-05-05T01:01:31.739Z,10.28
2017-05-05T01:02:12.611Z,10.33
2017-05-05T01:02:53.492Z,10.28
2017-05-05T01:03:34.367Z,10.4
2017-05-05T01:04:15.254Z,10.26
2017-05-05T01:04:56.128Z,10.2
2017-05-05T01:05:37.001Z,10.28
2017-05-05T01:06:17.884Z,10.2
2017-05-05T01:06:58.769Z,10.2
2017-05-05T01:07:39.641Z,10.28
2017-05-05T01:08:20.509Z,10.31
2017-05-05T01:09:01.378Z,10.28
2017-05-05T01:09:42.238Z,10.28
2017-05-05T01:10:23.117Z,10.3
2017-05-05T01:11:03.970Z,10.33
2017-05-05T01:11:44.858Z,10.41
2017-05-05T01:12:25.728Z,10.37
2017-05-05T01:13:06.642Z,10.37
2017-05-05T01:13:47.490Z,10.42
2017-05-05T01:14:28.356Z,10.35
2017-05-05T01:15:09.246Z,10.37
2017-05-05T01:15:50.111Z,10.37
2017-05-05T01:16:30.986Z,10.38
2017-05-05T01:17:11.861Z,10.41
2017-05-05T01:17:52.722Z,10.42
2017-05-05T01:18:33.587Z,10.4
2017-05-05T01:19:14.439Z,10.41
2017-05-05T01:19:55.319Z,10.37
2017-05-05T01:20:36.186Z,10.38
2017-05-05T01:21:17.088Z,10.41
2017-05-05T01:21:57.989Z,10.49
2017-05-05T01:22:38.855Z,10.48
2017-05-05T01:23:19.731Z,10.44
2017-05-05T01:24:00.618Z,10.33
2017-05-05T01:24:41.493Z,10.4
2017-05-05T01:25:22.360Z,10.35
2017-05-05T01:26:03.236Z,10.38
2017-05-05T01:26:44.099Z,10.34
2017-05-05T01:27:24.972Z,10.38
2017-05-05T01:28:05.834Z,10.3
2017-05-05T01:28:46.686Z,10.34
2017-05-05T01:29:27.581Z,10.38
2017-05-05T01:30:08.487Z,10.23
2017-05-05T01:30:49.348Z,10.3
2017-05-05T01:31:30.238Z,10.31
2017-05-05T01:32:11.124Z,10.2
2017-05-05T01:32:51.998Z,10.38
2017-05-05T01:33:32.877Z,10.38
2017-05-05T01:34:13.771Z,10.37
2017-05-05T01:34:54.662Z,10.35
2017-05-05T01:35:35.556Z,10.37
2017-05-05T01:36:16.446Z,10.34
2017-05-05T01:36:57.313Z,10.33
2017-05-05T01:37:38.201Z,10.37
2017-05-05T01:38:19.070Z,10.37
2017-05-05T01:38:59.944Z,10.37
2017-05-05T01:39:40.836Z,10.38
2017-05-05T01:40:21.724Z,10.35
2017-05-05T01:41:02.607Z,10.35
2017-05-05T01:41:43.483Z,10.34
2017-05-05T01:42:24.370Z,10.35
2017-05-05T01:43:05.239Z,10.37
2017-05-05T01:43:46.137Z,10.44
2017-05-05T01:44:27.005Z,10.4
2017-05-05T01:45:07.884Z,10.38
2017-05-05T01:45:48.761Z,10.48
2017-05-05T01:46:29.656Z,10.42
2017-05-05T01:47:10.537Z,10.48
2017-05-05T01:47:51.406Z,10.48
2017-05-05T01:48:32.295Z,10.51
2017-05-05T01:49:13.186Z,10.48
2017-05-05T01:49:54.058Z,10.51
2017-05-05T01:50:34.942Z,10.44
2017-05-05T01:51:15.835Z,10.56
2017-05-05T01:51:56.721Z,10.48
2017-05-05T01:52:37.592Z,10.44
2017-05-05T01:53:18.454Z,10.44
2017-05-05T01:53:59.334Z,10.46
2017-05-05T01:54:40.219Z,10.34
2017-05-05T01:55:21.110Z,10.37
2017-05-05T01:56:02.014Z,10.37
2017-05-05T01:56:42.898Z,10.3
2017-05-05T01:57:23.790Z,10.3
2017-05-05T01:58:04.666Z,10.31
2017-05-05T01:58:45.547Z,10.3
2017-05-05T01:59:26.429Z,10.35
2017-05-05T02:00:07.317Z,10.38
2017-05-05T02:00:48.204Z,10.33
2017-05-05T02:01:29.066Z,10.35
2017-05-05T02:02:09.957Z,10.4
2017-05-05T02:02:50.842Z,10.41
2017-05-05T02:03:31.730Z,10.37
2017-05-05T02:04:12.612Z,10.37
2017-05-05T02:04:53.497Z,10.38
2017-05-05T02:05:34.364Z,10.37
2017-05-05T02:06:15.258Z,10.37
2017-05-05T02:06:56.131Z,10.35
2017-05-05T02:07:37.031Z,10.34
2017-05-05T02:08:17.899Z,10.41
2017-05-05T02:08:58.793Z,10.38
2017-05-05T02:09:39.669Z,10.42
2017-05-05T02:10:20.560Z,10.44
2017-05-05T02:11:01.456Z,10.35
2017-05-05T02:11:42.337Z,10.38
2017-05-05T02:12:23.222Z,10.37
2017-05-05T02:13:04.109Z,10.37
2017-05-05T02:13:45.001Z,10.41
2017-05-05T02:14:25.875Z,10.38
2017-05-05T02:15:06.741Z,10.38
2017-05-05T02:15:47.632Z,10.41
2017-05-05T02:16:28.517Z,10.38
2017-05-05T02:17:09.390Z,10.37
2017-05-05T02:17:50.269Z,10.37
2017-05-05T02:18:31.152Z,10.44
2017-05-05T02:19:12.043Z,10.38
2017-05-05T02:19:52.937Z,10.35
2017-05-05T02:20:33.808Z,10.35
2017-05-05T02:21:14.696Z,10.4
2017-05-05T02:21:55.588Z,10.42
2017-05-05T02:22:36.494Z,10.4
2017-05-05T02:23:17.384Z,10.41
2017-05-05T02:23:58.271Z,10.41
2017-05-05T02:24:39.139Z,10.34
2017-05-05T02:25:20.025Z,10.4
2017-05-05T02:26:00.925Z,10.41
2017-05-05T02:26:41.807Z,10.35
2017-05-05T02:27:22.678Z,10.49
2017-05-05T02:28:03.564Z,10.42
2017-05-05T02:28:44.446Z,10.38
2017-05-05T02:29:25.325Z,10.42
2017-05-05T02:30:06.201Z,10.42
2017-05-05T02:30:47.077Z,10.44
2017-05-05T02:31:27.960Z,10.37
2017-05-05T02:32:08.840Z,10.38
2017-05-05T02:32:49.709Z,10.49
2017-05-05T02:33:30.592Z,10.49
2017-05-05T02:34:11.450Z,10.54
2017-05-05T02:34:52.332Z,10.56
2017-05-05T02:35:33.223Z,10.53
2017-05-05T02:36:14.106Z,10.63
2017-05-05T02:36:54.993Z,10.64
2017-05-05T02:37:35.866Z,10.56
2017-05-05T02:38:16.746Z,10.68
2017-05-05T02:38:57.627Z,10.57
2017-05-05T02:39:38.505Z,10.56
2017-05-05T02:40:19.382Z,10.59
2017-05-05T02:41:00.251Z,10.6
2017-05-05T02:41:41.142Z,10.6
2017-05-05T02:42:22.031Z,10.6
2017-05-05T02:43:02.917Z,10.56
2017-05-05T02:43:43.770Z,10.67
2017-05-05T02:44:24.629Z,10.57
2017-05-05T02:45:05.507Z,10.51
2017-05-05T02:45:46.397Z,10.53
2017-05-05T02:46:30.150Z,10.53
2017-05-05T02:47:11.019Z,10.57
2017-05-05T02:47:51.896Z,10.57
2017-05-05T02:48:32.785Z,10.6
2017-05-05T02:49:13.684Z,10.64
2017-05-05T02:49:54.610Z,10.59
2017-05-05T02:50:35.499Z,10.71
2017-05-05T02:51:16.377Z,10.68
2017-05-05T02:51:57.260Z,10.64
2017-05-05T02:52:38.226Z,10.59
2017-05-05T02:53:19.019Z,10.6
2017-05-05T02:53:59.894Z,10.61
2017-05-05T02:54:40.773Z,10.63
2017-05-05T02:55:21.638Z,10.63
2017-05-05T02:56:02.533Z,10.59
2017-05-05T02:56:43.414Z,10.54
2017-05-05T02:57:24.287Z,10.61
2017-05-05T02:58:05.159Z,10.59
2017-05-05T02:58:46.032Z,10.59
2017-05-05T02:59:26.915Z,10.57
2017-05-05T03:00:07.800Z,10.56
2017-05-05T03:00:48.694Z,10.61
2017-05-05T03:01:29.577Z,10.56
2017-05-05T03:02:10.510Z,10.54
2017-05-05T03:02:51.385Z,10.4
2017-05-05T03:03:32.279Z,10.56
2017-05-05T03:04:13.171Z,10.57
2017-05-05T03:04:54.047Z,10.56
2017-05-05T03:05:34.928Z,10.51
2017-05-05T03:06:15.812Z,10.57
2017-05-05T03:06:56.695Z,10.54
2017-05-05T03:09:01.101Z,10.51
2017-05-05T03:09:41.969Z,10.53
2017-05-05T03:10:22.845Z,10.4
2017-05-05T03:11:07.813Z,10.48
2017-05-05T03:11:48.689Z,10.41
2017-05-05T03:12:29.589Z,10.46
2017-05-05T03:13:10.473Z,10.37
2017-05-05T03:14:48.837Z,10.44
2017-05-05T03:15:29.723Z,10.48
2017-05-05T03:16:10.585Z,10.37
2017-05-05T03:16:51.457Z,10.48
2017-05-05T03:17:32.323Z,10.41
2017-05-05T03:18:13.202Z,10.42
2017-05-05T03:18:54.086Z,10.4
2017-05-05T03:19:34.971Z,10.53
2017-05-05T03:20:15.848Z,10.51
2017-05-05T03:20:56.727Z,10.54
2017-05-05T03:21:37.595Z,10.53
2017-05-05T03:22:18.484Z,10.48
2017-05-05T03:22:59.397Z,10.41
2017-05-05T03:23:40.252Z,10.4
2017-05-05T03:24:21.119Z,10.41
2017-05-05T03:25:01.970Z,10.38
2017-05-05T03:25:42.842Z,10.42
2017-05-05T03:26:23.732Z,10.35
2017-05-05T03:27:04.614Z,10.38
2017-05-05T03:27:45.488Z,10.38
2017-05-05T03:28:26.352Z,10.37
2017-05-05T03:29:07.224Z,10.35
2017-05-05T03:29:48.100Z,10.37
2017-05-05T03:30:28.985Z,10.4
2017-05-05T03:31:09.864Z,10.4
2017-05-05T03:31:50.741Z,10.37
2017-05-05T03:32:31.602Z,10.57
2017-05-05T03:33:12.481Z,10.48
2017-05-05T03:33:53.370Z,10.42
2017-05-05T03:34:34.239Z,10.44
2017-05-05T03:35:15.117Z,10.42
2017-05-05T03:35:55.991Z,10.57
2017-05-05T03:36:36.865Z,10.53
2017-05-05T03:37:17.751Z,10.61
2017-05-05T03:37:58.628Z,10.57
2017-05-05T03:38:39.497Z,10.59
2017-05-05T03:39:20.375Z,10.49
2017-05-05T03:40:01.260Z,10.56
2017-05-05T03:40:42.104Z,10.54
2017-05-05T03:41:22.992Z,10.51
2017-05-05T03:42:03.874Z,10.48
2017-05-05T03:42:44.743Z,10.38
2017-05-05T03:43:25.613Z,10.42
2017-05-05T03:44:06.495Z,10.53
2017-05-05T03:44:47.390Z,10.54
2017-05-05T03:45:28.249Z,10.59
2017-05-05T03:46:09.113Z,10.57
2017-05-05T03:46:49.995Z,10.64
2017-05-05T03:47:30.874Z,10.61
2017-05-05T03:48:11.758Z,10.69
2017-05-05T03:48:52.637Z,10.61
2017-05-05T03:49:33.512Z,10.61
2017-05-05T03:50:14.390Z,10.72
2017-05-05T03:50:55.279Z,10.61
2017-05-05T03:51:36.134Z,10.74
2017-05-05T03:52:16.999Z,10.72
2017-05-05T03:52:57.868Z,10.68
2017-05-05T03:53:38.747Z,10.63
2017-05-05T03:54:19.626Z,10.63
2017-05-05T03:55:00.486Z,10.53
2017-05-05T03:55:41.358Z,10.57
2017-05-05T03:56:22.229Z,10.56
2017-05-05T03:57:03.118Z,10.57
2017-05-05T03:57:43.993Z,10.6
2017-05-05T03:58:24.842Z,10.57
2017-05-05T03:59:05.724Z,10.6
2017-05-05T03:59:46.611Z,10.56
2017-05-05T04:00:27.499Z,10.57
2017-05-05T04:01:08.376Z,10.59
2017-05-05T04:01:49.266Z,10.59
2017-05-05T04:02:30.151Z,10.57
2017-05-05T04:03:11.031Z,10.61
2017-05-05T04:03:51.920Z,10.61
2017-05-05T04:04:32.800Z,10.74
2017-05-05T04:05:13.687Z,10.71
2017-05-05T04:05:54.567Z,10.71
2017-05-05T04:06:35.452Z,10.61
2017-05-05T04:07:16.344Z,10.72
2017-05-05T04:07:57.216Z,10.76
2017-05-05T04:08:38.095Z,10.75
2017-05-05T04:09:18.983Z,10.69
2017-05-05T04:09:59.869Z,10.72
2017-05-05T04:10:40.750Z,10.76
2017-05-05T04:11:21.630Z,10.64
2017-05-05T04:12:02.516Z,10.6
2017-05-05T04:12:43.400Z,10.61
2017-05-05T04:13:24.319Z,10.59
2017-05-05T04:14:05.172Z,10.63
2017-05-05T04:14:46.032Z,10.61
2017-05-05T04:15:26.906Z,10.6
2017-05-05T04:16:07.787Z,10.56
2017-05-05T04:16:48.662Z,10.54
2017-05-05T04:17:29.540Z,10.57
2017-05-05T04:18:10.410Z,10.63
2017-05-05T04:18:51.272Z,10.67
2017-05-05T04:19:32.159Z,10.57
2017-05-05T04:20:13.047Z,10.61
2017-05-05T04:20:53.948Z,10.67
2017-05-05T04:21:34.816Z,10.67
2017-05-05T04:22:15.700Z,10.64
2017-05-05T04:22:56.580Z,10.54
2017-05-05T04:23:37.455Z,10.6
2017-05-05T04:24:18.342Z,10.54
2017-05-05T04:24:59.250Z,10.61
2017-05-05T04:25:40.115Z,10.54
2017-05-05T04:26:20.994Z,10.38
2017-05-05T04:27:01.878Z,10.37
2017-05-05T04:27:42.762Z,10.44
2017-05-05T04:28:23.642Z,10.46
2017-05-05T04:29:04.530Z,10.37
2017-05-05T04:29:45.424Z,10.42
2017-05-05T04:30:26.310Z,10.41
2017-05-05T04:31:07.202Z,10.4
2017-05-05T04:31:48.072Z,10.4
2017-05-05T04:32:28.976Z,10.4
2017-05-05T04:33:09.836Z,10.41
2017-05-05T04:33:50.752Z,10.48
2017-05-05T04:34:31.596Z,10.41
2017-05-05T04:35:12.477Z,10.44
2017-05-05T04:35:53.782Z,10.44
2017-05-05T04:36:34.676Z,10.6
2017-05-05T04:37:15.556Z,10.59
2017-05-05T04:37:56.441Z,10.57
2017-05-05T04:38:37.332Z,10.56
2017-05-05T04:39:18.210Z,10.56
2017-05-05T04:39:59.094Z,10.53
2017-05-05T04:40:39.981Z,10.63
2017-05-05T04:41:20.849Z,10.59
2017-05-05T04:42:01.734Z,10.67
2017-05-05T04:42:42.607Z,10.69
2017-05-05T04:43:23.484Z,10.64
2017-05-05T04:44:04.372Z,10.75
2017-05-05T04:44:45.254Z,10.74
2017-05-05T04:45:26.135Z,10.76
2017-05-05T04:46:07.007Z,10.68
2017-05-05T04:46:47.881Z,10.69
2017-05-05T04:47:28.751Z,10.68
2017-05-05T04:48:09.622Z,10.75
2017-05-05T04:48:50.510Z,10.74
2017-05-05T04:49:31.416Z,10.74
2017-05-05T04:50:12.311Z,10.69
2017-05-05T04:50:53.208Z,10.64
2017-05-05T04:51:34.086Z,10.75
2017-05-05T04:52:14.968Z,10.64
2017-05-05T04:52:55.846Z,10.67
2017-05-05T04:53:36.736Z,10.64
2017-05-05T04:54:17.622Z,10.64
2017-05-05T04:54:58.505Z,10.57
2017-05-05T04:55:39.391Z,10.57
2017-05-05T04:56:20.270Z,10.67
2017-05-05T04:57:01.138Z,10.63
2017-05-05T04:57:42.028Z,10.71
2017-05-05T04:58:22.903Z,10.67
2017-05-05T04:59:03.791Z,10.63
2017-05-05T04:59:44.684Z,10.64
2017-05-05T05:00:25.557Z,10.67
2017-05-05T05:01:06.431Z,10.6
2017-05-05T05:01:47.294Z,10.76
2017-05-05T05:02:28.172Z,10.76
2017-05-05T05:03:09.104Z,10.71
2017-05-05T05:03:49.980Z,10.71
2017-05-05T05:04:30.851Z,10.76
2017-05-05T05:05:11.728Z,10.75
2017-05-05T05:05:52.606Z,10.74
2017-05-05T05:06:33.501Z,10.89
2017-05-05T05:07:14.493Z,10.79
2017-05-05T05:07:55.361Z,10.89
2017-05-05T05:08:36.241Z,10.87
2017-05-05T05:09:17.152Z,10.96
2017-05-05T05:09:58.058Z,10.92
2017-05-05T05:10:38.951Z,10.9
2017-05-05T05:11:19.841Z,10.93
2017-05-05T05:12:00.743Z,10.97
2017-05-05T05:12:41.623Z,11
2017-05-05T05:13:22.514Z,10.94
2017-05-05T05:14:03.407Z,11.05
2017-05-05T05:14:44.285Z,10.97
2017-05-05T05:15:25.162Z,11.05
2017-05-05T05:16:06.045Z,11.08
2017-05-05T05:16:46.911Z,11.04
2017-05-05T05:17:27.799Z,11
2017-05-05T05:18:08.692Z,10.99
2017-05-05T05:18:49.583Z,11.05
2017-05-05T05:19:30.463Z,10.97
2017-05-05T05:20:11.325Z,10.86
2017-05-05T05:20:52.194Z,10.92
2017-05-05T05:21:33.074Z,10.94
2017-05-05T05:23:11.543Z,10.99
2017-05-05T05:23:52.403Z,10.99
2017-05-05T05:24:33.281Z,10.92
2017-05-05T05:25:14.166Z,10.99
2017-05-05T05:25:55.067Z,10.94
2017-05-05T05:26:35.952Z,10.97
2017-05-05T05:27:16.841Z,10.92
2017-05-05T05:27:57.728Z,10.93
2017-05-05T05:28:38.632Z,10.89
2017-05-05T05:29:19.531Z,10.82
2017-05-05T05:30:00.421Z,10.9
2017-05-05T05:30:41.305Z,10.97
2017-05-05T05:31:22.192Z,10.84
2017-05-05T05:32:03.079Z,10.87
2017-05-05T05:32:43.967Z,10.97
2017-05-05T05:33:24.859Z,10.97
2017-05-05T05:34:05.758Z,10.99
2017-05-05T05:34:46.640Z,11.04
2017-05-05T05:35:27.522Z,11.05
2017-05-05T05:36:10.243Z,11
2017-05-05T05:36:51.139Z,11.07
2017-05-05T05:37:32.009Z,11.12
2017-05-05T05:38:12.888Z,11.07
2017-05-05T05:38:53.778Z,11.08
2017-05-05T05:39:34.667Z,11
2017-05-05T05:40:15.566Z,11.12
2017-05-05T05:40:59.091Z,11.08
2017-05-05T05:41:39.983Z,11.19
2017-05-05T05:42:20.869Z,11.05
2017-05-05T05:43:01.765Z,11.05
2017-05-05T05:43:42.650Z,11.04
2017-05-05T05:44:23.542Z,11.12
2017-05-05T05:45:04.421Z,11.1
2017-05-05T05:45:45.316Z,11.02
2017-05-05T05:46:26.204Z,10.96
2017-05-05T05:47:07.092Z,10.96
2017-05-05T05:47:48.008Z,10.94
2017-05-05T05:48:28.899Z,10.97
2017-05-05T05:49:09.784Z,10.99
2017-05-05T05:49:50.683Z,10.96
2017-05-05T05:50:31.559Z,10.97
2017-05-05T05:51:12.464Z,10.92
2017-05-05T05:51:53.360Z,11
2017-05-05T05:52:34.221Z,10.97
2017-05-05T05:53:15.113Z,11.12
2017-05-05T05:53:55.999Z,11.1
2017-05-05T05:54:36.882Z,11.14
2017-05-05T05:55:17.769Z,11.23
2017-05-05T05:55:58.644Z,11.25
2017-05-05T05:56:39.531Z,11.44
2017-05-05T05:57:20.432Z,11.44
2017-05-05T05:58:01.323Z,11.47
2017-05-05T05:58:42.210Z,11.47
2017-05-05T05:59:23.093Z,11.44
2017-05-05T06:00:03.983Z,11.55
2017-05-05T06:00:44.865Z,11.57
2017-05-05T06:01:25.741Z,11.72
2017-05-05T06:02:06.638Z,11.72
2017-05-05T06:02:47.516Z,11.72
2017-05-05T06:03:28.410Z,11.84
2017-05-05T06:05:44.119Z,11.9
2017-05-05T06:06:25.004Z,11.87
2017-05-05T06:08:38.745Z,12
2017-05-05T06:13:19.051Z,12.04
2017-05-05T06:13:59.937Z,12.18
2017-05-05T06:14:40.822Z,12.02
2017-05-05T06:15:21.697Z,12.04
2017-05-05T06:16:02.589Z,12.06
2017-05-05T06:16:43.479Z,12.02
2017-05-05T06:17:24.350Z,11.97
2017-05-05T06:18:05.247Z,11.9
2017-05-05T06:18:46.135Z,11.9
2017-05-05T06:19:27.009Z,12.03
2017-05-05T06:20:07.885Z,12.02
2017-05-05T06:20:48.765Z,12.04
2017-05-05T06:21:29.656Z,12.03
2017-05-05T06:22:10.546Z,12.07
2017-05-05T06:22:51.413Z,12.15
2017-05-05T06:23:32.296Z,12.04
2017-05-05T06:24:13.178Z,12.12
2017-05-05T06:24:54.049Z,12.04
2017-05-05T06:25:34.935Z,12.22
2017-05-05T06:26:15.834Z,12.17
2017-05-05T06:26:56.725Z,12.18
2017-05-05T06:27:37.613Z,12.22
2017-05-05T06:28:18.498Z,12.27
2017-05-05T06:28:59.381Z,12.28
2017-05-05T06:29:40.289Z,12.31
2017-05-05T06:30:21.174Z,12.36
2017-05-05T06:31:02.053Z,12.4
2017-05-05T06:31:42.963Z,12.35
2017-05-05T06:32:23.823Z,12.42
2017-05-05T06:33:04.705Z,12.27
2017-05-05T06:33:45.586Z,12.32
2017-05-05T06:34:26.478Z,12.25
2017-05-05T06:35:07.368Z,12.29
2017-05-05T06:35:48.252Z,12.22
2017-05-05T06:36:29.144Z,12.12
2017-05-05T06:38:02.484Z,12.18
2017-05-05T06:38:43.368Z,12.13
2017-05-05T06:39:24.250Z,12.04
2017-05-05T06:40:05.115Z,12.09
2017-05-05T06:40:45.982Z,12.12
2017-05-05T06:41:26.864Z,12
2017-05-05T06:42:07.741Z,12.15
2017-05-05T06:42:48.623Z,12.17
2017-05-05T06:43:29.499Z,12.03
2017-05-05T06:44:10.367Z,12.17
2017-05-05T06:44:51.238Z,12.09
2017-05-05T06:45:32.129Z,12.15
2017-05-05T06:46:13.013Z,12.15
2017-05-05T06:46:53.870Z,12.09
2017-05-05T06:47:34.732Z,12.2
2017-05-05T06:48:15.614Z,12.22
2017-05-05T06:48:56.502Z,12.21
2017-05-05T06:49:37.366Z,12.17
2017-05-05T06:50:18.260Z,12.18
2017-05-05T06:50:59.135Z,12.25
2017-05-05T06:51:40.019Z,12.27
2017-05-05T06:52:20.903Z,12.24
2017-05-05T06:53:01.786Z,12.24
2017-05-05T06:53:42.671Z,12.29
2017-05-05T06:54:23.559Z,12.25
2017-05-05T06:55:04.452Z,12.29
2017-05-05T06:55:45.324Z,12.32
2017-05-05T06:56:26.209Z,12.35
2017-05-05T06:57:07.094Z,12.31
2017-05-05T06:57:47.997Z,12.35
2017-05-05T06:58:28.875Z,12.28
2017-05-05T06:59:09.740Z,12.31
2017-05-05T06:59:50.615Z,12.35
2017-05-05T07:00:31.511Z,12.28
2017-05-05T07:01:12.389Z,12.32
2017-05-05T07:01:53.272Z,12.31
2017-05-05T07:02:34.140Z,12.22
2017-05-05T07:03:15.025Z,12.31
2017-05-05T07:03:55.886Z,12.31
2017-05-05T07:04:36.764Z,12.35
2017-05-05T07:05:17.656Z,12.37
2017-05-05T07:05:58.532Z,12.42
2017-05-05T07:06:39.423Z,12.46
2017-05-05T07:07:20.309Z,12.47
2017-05-05T07:08:01.191Z,12.42
2017-05-05T07:08:42.087Z,12.42
2017-05-05T07:09:23.000Z,12.49
2017-05-05T07:10:03.884Z,12.46
2017-05-05T07:10:44.764Z,12.54
2017-05-05T07:11:25.652Z,12.43
2017-05-05T07:12:06.536Z,12.46
2017-05-05T07:12:47.414Z,12.46
2017-05-05T07:13:28.298Z,12.46
2017-05-05T07:14:09.217Z,12.64
2017-05-05T07:14:50.118Z,12.58
2017-05-05T07:15:31.010Z,12.57
2017-05-05T07:16:11.893Z,12.58
2017-05-05T07:16:52.785Z,12.61
2017-05-05T07:17:33.677Z,12.61
2017-05-05T07:18:14.566Z,12.7
2017-05-05T07:18:55.447Z,12.62
2017-05-05T07:19:36.336Z,12.67
2017-05-05T07:20:17.224Z,12.67
2017-05-05T07:20:58.111Z,12.68
2017-05-05T07:21:39.004Z,12.7
2017-05-05T07:22:19.896Z,12.68
2017-05-05T07:23:00.794Z,12.75
2017-05-05T07:23:41.684Z,12.85
2017-05-05T07:24:22.574Z,12.83
2017-05-05T07:25:03.464Z,12.79
2017-05-05T07:25:44.358Z,12.78
2017-05-05T07:26:25.225Z,12.76
2017-05-05T07:27:06.120Z,12.62
2017-05-05T07:27:47.001Z,12.68
2017-05-05T07:28:27.895Z,12.64
2017-05-05T07:29:08.782Z,12.64
2017-05-05T07:29:49.667Z,12.72
2017-05-05T07:30:30.553Z,12.61
2017-05-05T07:31:11.440Z,12.62
2017-05-05T07:31:52.322Z,12.57
2017-05-05T07:32:33.210Z,12.58
2017-05-05T07:33:14.101Z,12.6
2017-05-05T07:33:54.982Z,12.61
2017-05-05T07:34:35.871Z,12.61
2017-05-05T07:35:16.764Z,12.64
2017-05-05T07:35:57.652Z,12.65
2017-05-05T07:36:38.539Z,12.68
2017-05-05T07:37:19.433Z,12.7
2017-05-05T07:38:00.326Z,12.65
2017-05-05T07:38:41.206Z,12.67
2017-05-05T07:39:22.099Z,12.8
2017-05-05T07:40:02.980Z,12.8
2017-05-05T07:40:43.868Z,12.8
2017-05-05T07:41:24.750Z,12.78
2017-05-05T07:42:05.642Z,12.8
2017-05-05T07:43:59.441Z,12.82
2017-05-05T07:44:40.322Z,12.9
2017-05-05T07:45:21.203Z,12.87
2017-05-05T07:46:02.086Z,12.83
2017-05-05T07:46:42.957Z,12.83
2017-05-05T07:47:23.850Z,12.85
2017-05-05T07:48:04.733Z,12.73
2017-05-05T07:48:45.609Z,12.78
2017-05-05T07:49:26.507Z,12.73
2017-05-05T07:50:07.402Z,12.8
2017-05-05T07:50:48.269Z,12.7
2017-05-05T07:51:29.155Z,12.79
2017-05-05T07:52:10.038Z,12.85
2017-05-05T07:52:50.924Z,12.68
2017-05-05T07:53:31.817Z,12.67
2017-05-05T07:54:12.707Z,12.68
2017-05-05T07:54:53.595Z,12.7
2017-05-05T07:55:34.477Z,12.7
2017-05-05T07:56:15.365Z,12.68
2017-05-05T07:56:56.249Z,12.73
2017-05-05T07:57:37.134Z,12.68
2017-05-05T07:58:18.052Z,12.73
2017-05-05T07:58:58.982Z,12.67
2017-05-05T07:59:39.895Z,12.67
2017-05-05T08:00:20.798Z,12.75
2017-05-05T08:01:01.731Z,12.7
2017-05-05T08:01:42.665Z,12.78
2017-05-05T08:02:23.578Z,12.79
2017-05-05T08:03:04.474Z,12.75
2017-05-05T08:04:59.070Z,12.78
2017-05-05T08:05:39.956Z,12.82
2017-05-05T08:06:20.869Z,12.9
2017-05-05T08:07:02.648Z,12.87
2017-05-05T08:07:43.539Z,12.86
2017-05-05T08:08:24.412Z,12.9
2017-05-05T08:09:05.312Z,13.01
2017-05-05T08:09:46.216Z,12.95
2017-05-05T08:10:27.110Z,12.93
2017-05-05T08:11:08.011Z,12.97
2017-05-05T08:11:48.896Z,13.01
2017-05-05T08:12:29.781Z,13.04
2017-05-05T08:13:10.670Z,13.01
2017-05-05T08:13:51.552Z,12.97
2017-05-05T08:14:32.435Z,12.98
2017-05-05T08:15:13.341Z,13.04
2017-05-05T08:15:54.227Z,13.04
2017-05-05T08:16:35.106Z,12.97
2017-05-05T08:17:15.984Z,12.95
2017-05-05T08:17:56.874Z,12.94
2017-05-05T08:18:37.775Z,12.95
2017-05-05T08:19:18.656Z,12.94
2017-05-05T08:19:59.548Z,12.97
2017-05-05T08:20:40.438Z,12.94
2017-05-05T08:21:21.319Z,12.91
2017-05-05T08:22:02.197Z,12.95
2017-05-05T08:22:43.088Z,12.95
2017-05-05T08:23:23.976Z,12.98
2017-05-05T08:24:04.868Z,13.04
2017-05-05T08:24:45.763Z,13.11
2017-05-05T08:25:26.659Z,13.12
2017-05-05T08:26:07.550Z,13.11
2017-05-05T08:26:48.443Z,13.13
2017-05-05T08:27:29.337Z,13.15
2017-05-05T08:28:10.220Z,13.27
2017-05-05T08:28:51.109Z,13.25
2017-05-05T08:29:31.996Z,13.31
2017-05-05T08:30:12.876Z,13.16
2017-05-05T08:30:53.761Z,13.25
2017-05-05T08:31:34.659Z,13.23
2017-05-05T08:32:15.549Z,13.33
2017-05-05T08:32:56.435Z,13.3
2017-05-05T08:33:37.339Z,13.2
2017-05-05T08:34:18.224Z,13.35
2017-05-05T08:34:59.110Z,13.3
2017-05-05T08:35:39.994Z,13.37
2017-05-05T08:36:22.681Z,13.3
2017-05-05T08:37:03.568Z,13.3
2017-05-05T08:37:44.438Z,13.28
2017-05-05T08:38:25.323Z,13.31
2017-05-05T08:39:06.188Z,13.22
2017-05-05T08:39:47.071Z,13.35
2017-05-05T08:40:27.971Z,13.23
2017-05-05T08:41:08.850Z,13.28
2017-05-05T08:41:49.727Z,13.18
2017-05-05T08:42:30.620Z,13.25
2017-05-05T08:43:11.569Z,13.25
2017-05-05T08:43:52.488Z,13.39
2017-05-05T08:44:33.368Z,13.35
2017-05-05T08:45:14.267Z,13.38
2017-05-05T08:45:55.160Z,13.41
2017-05-05T08:46:36.025Z,13.46
2017-05-05T08:47:16.908Z,13.39
2017-05-05T08:47:57.811Z,13.52
2017-05-05T08:48:38.705Z,13.54
2017-05-05T08:49:19.607Z,13.47
2017-05-05T08:50:00.497Z,13.53
2017-05-05T08:50:41.374Z,13.52
2017-05-05T08:51:22.279Z,13.57
2017-05-05T08:52:03.174Z,13.6
2017-05-05T08:52:44.057Z,13.67
2017-05-05T08:53:24.948Z,13.65
2017-05-05T08:54:05.848Z,13.65
2017-05-05T08:54:46.775Z,13.71
2017-05-05T08:55:27.664Z,13.83
2017-05-05T08:56:08.541Z,13.83
2017-05-05T08:56:49.414Z,13.81
2017-05-05T08:57:30.310Z,13.83
2017-05-05T08:58:11.202Z,13.81
2017-05-05T08:58:52.085Z,13.86
2017-05-05T08:59:32.958Z,13.78
2017-05-05T09:00:13.848Z,13.87
2017-05-05T09:00:54.747Z,13.83
2017-05-05T09:01:35.619Z,13.85
2017-05-05T09:02:17.183Z,13.81
2017-05-05T09:02:58.066Z,13.75
2017-05-05T09:03:38.968Z,13.85